Weather at Grand Canyon National Park Airport

Public forecast

Using degrees Fahrenheit for public forecast. Weather courtesy of forecast.io.

Current aviation weather report (METAR) for Grand Canyon National Park Airport

Report is more than 6 hours old.

2022/11/14 14:54 (retrieved 2 years ago)

KGCN 141454Z 00000KT 10SM CLR M09/M11 A3012 RMK AO2 SLP228 I3000 T10891106 53016

Aviation forecast (TAF) for Grand Canyon National Park Airport

Forecast is more than 12 hours old.

2023/02/22 18:00 Ammendment (retrieved 1 year ago)

TAF AMD KGCN 221758Z 2218/2318 24020G30KT 3SM -SHSN OVC015 TEMPO 2218/2221 1/2SM SHSN FZFG OVC010 FM230200 22014G22KT P6SM VCSH BKN025 OVC040 FM231000 21018G26KT P6SM BKN025 OVC040 PROB30 2312/2318 2SM -SHSN OVC010